sensor_id;sensor_type;location;lat;lon;timestamp;pressure;altitude;pressure_sealevel;temperature;humidity
66668;BME280;57205;51.438;-2.006;2022-11-20T00:00:48;100361.13;;;6.22;99.79
66668;BME280;57205;51.438;-2.006;2022-11-20T00:03:15;100353.97;;;6.22;100.00
66668;BME280;57205;51.438;-2.006;2022-11-20T00:05:43;100358.47;;;6.22;100.00
66668;BME280;57205;51.438;-2.006;2022-11-20T00:08:08;100355.56;;;6.23;100.00
66668;BME280;57205;51.438;-2.006;2022-11-20T00:10:36;100351.31;;;6.22;100.00
66668;BME280;57205;51.438;-2.006;2022-11-20T00:13:02;100345.19;;;6.22;100.00
66668;BME280;57205;51.438;-2.006;2022-11-20T00:15:28;100347.03;;;6.21;100.00
66668;BME280;57205;51.438;-2.006;2022-11-20T00:17:53;100345.75;;;6.24;100.00
66668;BME280;57205;51.438;-2.006;2022-11-20T00:20:19;100345.50;;;6.25;100.00
66668;BME280;57205;51.438;-2.006;2022-11-20T00:22:44;100341.47;;;6.23;100.00
66668;BME280;57205;51.438;-2.006;2022-11-20T00:25:10;100347.84;;;6.22;100.00
66668;BME280;57205;51.438;-2.006;2022-11-20T00:27:36;100342.22;;;6.18;100.00
66668;BME280;57205;51.438;-2.006;2022-11-20T00:30:02;100341.41;;;6.18;100.00
66668;BME280;57205;51.438;-2.006;2022-11-20T00:32:27;100340.59;;;6.17;100.00
66668;BME280;57205;51.438;-2.006;2022-11-20T00:34:53;100335.78;;;6.14;100.00
66668;BME280;57205;51.438;-2.006;2022-11-20T00:37:18;100329.66;;;6.14;100.00
66668;BME280;57205;51.438;-2.006;2022-11-20T00:39:44;100322.75;;;6.13;100.00
66668;BME280;57205;51.438;-2.006;2022-11-20T00:42:09;100323.19;;;6.10;100.00
66668;BME280;57205;51.438;-2.006;2022-11-20T00:44:35;100317.09;;;6.09;100.00
66668;BME280;57205;51.438;-2.006;2022-11-20T00:47:00;100314.91;;;6.06;100.00
66668;BME280;57205;51.438;-2.006;2022-11-20T00:49:25;100306.16;;;6.06;100.00
66668;BME280;57205;51.438;-2.006;2022-11-20T00:51:51;100309.59;;;6.06;100.00
66668;BME280;57205;51.438;-2.006;2022-11-20T00:54:16;100311.47;;;6.06;100.00
66668;BME280;57205;51.438;-2.006;2022-11-20T00:56:42;100294.47;;;6.07;100.00
66668;BME280;57205;51.438;-2.006;2022-11-20T00:59:09;100297.94;;;6.07;100.00
66668;BME280;57205;51.438;-2.006;2022-11-20T01:01:35;100292.06;;;6.05;100.00
66668;BME280;57205;51.438;-2.006;2022-11-20T01:04:01;100283.63;;;6.08;100.00
66668;BME280;57205;51.438;-2.006;2022-11-20T01:06:30;100275.66;;;6.08;100.00
66668;BME280;57205;51.438;-2.006;2022-11-20T01:08:58;100271.72;;;6.11;100.00
66668;BME280;57205;51.438;-2.006;2022-11-20T01:11:26;100256.81;;;6.10;100.00
66668;BME280;57205;51.438;-2.006;2022-11-20T01:13:53;100255.78;;;6.11;100.00
66668;BME280;57205;51.438;-2.006;2022-11-20T01:16:35;100247.56;;;6.12;100.00
66668;BME280;57205;51.438;-2.006;2022-11-20T01:19:04;100251.03;;;6.13;100.00
66668;BME280;57205;51.438;-2.006;2022-11-20T01:21:32;100248.13;;;6.14;100.00
66668;BME280;57205;51.438;-2.006;2022-11-20T01:23:58;100238.31;;;6.15;100.00
66668;BME280;57205;51.438;-2.006;2022-11-20T01:26:32;100233.22;;;6.13;100.00
66668;BME280;57205;51.438;-2.006;2022-11-20T01:28:58;100228.72;;;6.14;100.00
66668;BME280;57205;51.438;-2.006;2022-11-20T01:33:56;100224.47;;;6.13;100.00
66668;BME280;57205;51.438;-2.006;2022-11-20T01:36:24;100215.19;;;6.15;100.00
66668;BME280;57205;51.438;-2.006;2022-11-20T01:38:54;100209.88;;;6.15;100.00
66668;BME280;57205;51.438;-2.006;2022-11-20T01:41:21;100207.31;;;6.20;100.00
66668;BME280;57205;51.438;-2.006;2022-11-20T01:44:05;100201.50;;;6.23;100.00
66668;BME280;57205;51.438;-2.006;2022-11-20T01:46:32;100202.09;;;6.30;100.00
66668;BME280;57205;51.438;-2.006;2022-11-20T01:51:50;100198.97;;;6.33;100.00
66668;BME280;57205;51.438;-2.006;2022-11-20T01:54:31;100188.91;;;6.35;100.00
66668;BME280;57205;51.438;-2.006;2022-11-20T01:57:00;100181.41;;;6.32;100.00
66668;BME280;57205;51.438;-2.006;2022-11-20T01:59:28;100174.25;;;6.33;100.00
66668;BME280;57205;51.438;-2.006;2022-11-20T02:01:53;100173.19;;;6.34;100.00
66668;BME280;57205;51.438;-2.006;2022-11-20T02:04:20;100163.63;;;6.33;100.00
66668;BME280;57205;51.438;-2.006;2022-11-20T02:06:59;100166.03;;;6.34;100.00
66668;BME280;57205;51.438;-2.006;2022-11-20T02:09:25;100169.50;;;6.35;100.00
66668;BME280;57205;51.438;-2.006;2022-11-20T02:11:52;100163.88;;;6.31;100.00
66668;BME280;57205;51.438;-2.006;2022-11-20T02:14:17;100161.78;;;6.33;100.00
66668;BME280;57205;51.438;-2.006;2022-11-20T02:16:47;100162.81;;;6.32;100.00
66668;BME280;57205;51.438;-2.006;2022-11-20T02:19:33;100158.06;;;6.34;100.00
66668;BME280;57205;51.438;-2.006;2022-11-20T02:22:14;100150.66;;;6.36;100.00
66668;BME280;57205;51.438;-2.006;2022-11-20T02:24:44;100147.47;;;6.39;100.00
66668;BME280;57205;51.438;-2.006;2022-11-20T02:27:15;100143.78;;;6.40;100.00
66668;BME280;57205;51.438;-2.006;2022-11-20T02:32:25;100135.56;;;6.42;100.00
66668;BME280;57205;51.438;-2.006;2022-11-20T02:34:51;100129.69;;;6.40;100.00
66668;BME280;57205;51.438;-2.006;2022-11-20T02:37:17;100115.13;;;6.42;100.00
66668;BME280;57205;51.438;-2.006;2022-11-20T02:39:46;100111.13;;;6.45;100.00
66668;BME280;57205;51.438;-2.006;2022-11-20T02:42:12;100111.47;;;6.48;100.00
66668;BME280;57205;51.438;-2.006;2022-11-20T02:44:38;100110.97;;;6.51;100.00
66668;BME280;57205;51.438;-2.006;2022-11-20T02:47:03;100099.25;;;6.52;100.00
66668;BME280;57205;51.438;-2.006;2022-11-20T02:49:29;100102.47;;;6.54;100.00
66668;BME280;57205;51.438;-2.006;2022-11-20T02:51:54;100095.88;;;6.57;100.00
66668;BME280;57205;51.438;-2.006;2022-11-20T02:54:19;100096.44;;;6.59;100.00
66668;BME280;57205;51.438;-2.006;2022-11-20T02:56:45;100090.84;;;6.60;100.00
66668;BME280;57205;51.438;-2.006;2022-11-20T02:59:10;100099.38;;;6.62;100.00
66668;BME280;57205;51.438;-2.006;2022-11-20T03:01:36;100093.78;;;6.59;100.00
66668;BME280;57205;51.438;-2.006;2022-11-20T03:04:02;100085.53;;;6.60;100.00
66668;BME280;57205;51.438;-2.006;2022-11-20T03:06:28;100084.72;;;6.60;100.00
66668;BME280;57205;51.438;-2.006;2022-11-20T03:08:53;100078.63;;;6.59;100.00
66668;BME280;57205;51.438;-2.006;2022-11-20T03:11:19;100082.88;;;6.60;100.00
66668;BME280;57205;51.438;-2.006;2022-11-20T03:13:44;100074.09;;;6.60;100.00
66668;BME280;57205;51.438;-2.006;2022-11-20T03:16:13;100068.78;;;6.60;100.00
66668;BME280;57205;51.438;-2.006;2022-11-20T03:18:39;100062.69;;;6.59;100.00
66668;BME280;57205;51.438;-2.006;2022-11-20T03:21:05;100058.97;;;6.60;100.00
66668;BME280;57205;51.438;-2.006;2022-11-20T03:23:31;100049.69;;;6.63;100.00
66668;BME280;57205;51.438;-2.006;2022-11-20T03:26:09;100055.00;;;6.63;100.00
66668;BME280;57205;51.438;-2.006;2022-11-20T03:28:35;100046.22;;;6.62;100.00
66668;BME280;57205;51.438;-2.006;2022-11-20T03:31:06;100044.38;;;6.63;100.00
66668;BME280;57205;51.438;-2.006;2022-11-20T03:33:32;100045.16;;;6.63;100.00
66668;BME280;57205;51.438;-2.006;2022-11-20T03:36:04;100047.03;;;6.63;100.00
66668;BME280;57205;51.438;-2.006;2022-11-20T03:38:31;100036.41;;;6.63;100.00
66668;BME280;57205;51.438;-2.006;2022-11-20T03:41:03;100035.06;;;6.65;100.00
66668;BME280;57205;51.438;-2.006;2022-11-20T03:43:29;100034.84;;;6.67;100.00
66668;BME280;57205;51.438;-2.006;2022-11-20T03:45:54;100038.81;;;6.64;100.00
66668;BME280;57205;51.438;-2.006;2022-11-20T03:48:20;100040.94;;;6.67;100.00
66668;BME280;57205;51.438;-2.006;2022-11-20T03:50:45;100037.25;;;6.68;100.00
66668;BME280;57205;51.438;-2.006;2022-11-20T03:53:13;100032.72;;;6.69;100.00
66668;BME280;57205;51.438;-2.006;2022-11-20T03:55:39;100030.38;;;6.72;100.00
66668;BME280;57205;51.438;-2.006;2022-11-20T03:58:04;100032.78;;;6.74;100.00
66668;BME280;57205;51.438;-2.006;2022-11-20T04:00:30;100033.88;;;6.78;100.00
66668;BME280;57205;51.438;-2.006;2022-11-20T04:02:58;100035.25;;;6.85;100.00
66668;BME280;57205;51.438;-2.006;2022-11-20T04:05:24;100038.50;;;6.93;100.00
66668;BME280;57205;51.438;-2.006;2022-11-20T04:07:49;100043.03;;;6.97;100.00
66668;BME280;57205;51.438;-2.006;2022-11-20T04:10:15;100038.03;;;7.01;100.00
66668;BME280;57205;51.438;-2.006;2022-11-20T04:12:40;100042.56;;;7.00;100.00
66668;BME280;57205;51.438;-2.006;2022-11-20T04:15:06;100041.22;;;7.03;100.00
66668;BME280;57205;51.438;-2.006;2022-11-20T04:17:32;100031.41;;;7.03;100.00
66668;BME280;57205;51.438;-2.006;2022-11-20T04:19:57;100033.81;;;7.05;100.00
66668;BME280;57205;51.438;-2.006;2022-11-20T04:22:22;100025.03;;;7.04;100.00
66668;BME280;57205;51.438;-2.006;2022-11-20T04:24:48;100022.38;;;7.04;100.00
66668;BME280;57205;51.438;-2.006;2022-11-20T04:27:13;100026.38;;;7.07;100.00
66668;BME280;57205;51.438;-2.006;2022-11-20T04:29:39;100019.19;;;7.07;100.00
66668;BME280;57205;51.438;-2.006;2022-11-20T04:32:05;100013.31;;;7.05;100.00
66668;BME280;57205;51.438;-2.006;2022-11-20T04:34:30;100010.94;;;7.04;100.00
66668;BME280;57205;51.438;-2.006;2022-11-20T04:36:56;100013.03;;;7.02;100.00
66668;BME280;57205;51.438;-2.006;2022-11-20T04:39:21;100025.53;;;7.01;100.00
66668;BME280;57205;51.438;-2.006;2022-11-20T04:41:47;100019.66;;;6.99;100.00
66668;BME280;57205;51.438;-2.006;2022-11-20T04:44:12;100018.84;;;6.99;100.00
66668;BME280;57205;51.438;-2.006;2022-11-20T04:46:39;100024.16;;;6.99;100.00
66668;BME280;57205;51.438;-2.006;2022-11-20T04:49:06;100031.09;;;7.00;100.00
66668;BME280;57205;51.438;-2.006;2022-11-20T04:51:32;100019.91;;;6.98;100.00
66668;BME280;57205;51.438;-2.006;2022-11-20T04:53:58;100023.41;;;6.98;100.00
66668;BME280;57205;51.438;-2.006;2022-11-20T04:56:24;100031.38;;;6.98;100.00
66668;BME280;57205;51.438;-2.006;2022-11-20T04:58:49;100022.59;;;6.98;100.00
66668;BME280;57205;51.438;-2.006;2022-11-20T05:01:19;100034.81;;;6.99;100.00
66668;BME280;57205;51.438;-2.006;2022-11-20T05:03:45;100029.50;;;6.99;100.00
66668;BME280;57205;51.438;-2.006;2022-11-20T05:06:12;100027.38;;;7.01;100.00
66668;BME280;57205;51.438;-2.006;2022-11-20T05:08:39;100021.28;;;7.00;100.00
66668;BME280;57205;51.438;-2.006;2022-11-20T05:11:15;100022.38;;;7.04;100.00
66668;BME280;57205;51.438;-2.006;2022-11-20T05:13:41;100019.72;;;7.04;100.00
66668;BME280;57205;51.438;-2.006;2022-11-20T05:16:11;100023.16;;;7.05;100.00
66668;BME280;57205;51.438;-2.006;2022-11-20T05:18:38;100035.16;;;7.07;100.00
66668;BME280;57205;51.438;-2.006;2022-11-20T05:21:04;100040.47;;;7.07;100.00
66668;BME280;57205;51.438;-2.006;2022-11-20T05:23:31;100033.31;;;7.08;100.00
66668;BME280;57205;51.438;-2.006;2022-11-20T05:25:57;100039.66;;;7.07;100.00
66668;BME280;57205;51.438;-2.006;2022-11-20T05:28:23;100038.84;;;7.06;100.00
66668;BME280;57205;51.438;-2.006;2022-11-20T05:30:50;100040.47;;;7.07;100.00
66668;BME280;57205;51.438;-2.006;2022-11-20T05:33:16;100032.50;;;7.07;100.00
66668;BME280;57205;51.438;-2.006;2022-11-20T05:35:41;100043.94;;;7.08;100.00
66668;BME280;57205;51.438;-2.006;2022-11-20T05:38:07;100038.06;;;7.06;100.00
66668;BME280;57205;51.438;-2.006;2022-11-20T05:40:32;100037.53;;;7.04;100.00
66668;BME280;57205;51.438;-2.006;2022-11-20T05:42:58;100041.75;;;7.00;100.00
66668;BME280;57205;51.438;-2.006;2022-11-20T05:45:24;100036.09;;;6.91;100.00
66668;BME280;57205;51.438;-2.006;2022-11-20T05:47:49;100046.13;;;6.84;100.00
66668;BME280;57205;51.438;-2.006;2022-11-20T05:50:15;100045.81;;;6.75;100.00
66668;BME280;57205;51.438;-2.006;2022-11-20T05:52:40;100042.00;;;6.66;100.00
66668;BME280;57205;51.438;-2.006;2022-11-20T05:55:06;100047.22;;;6.56;100.00
66668;BME280;57205;51.438;-2.006;2022-11-20T05:57:32;100042.91;;;6.50;100.00
66668;BME280;57205;51.438;-2.006;2022-11-20T05:59:57;100038.06;;;6.42;100.00
66668;BME280;57205;51.438;-2.006;2022-11-20T06:02:23;100048.13;;;6.40;100.00
66668;BME280;57205;51.438;-2.006;2022-11-20T06:04:48;100045.19;;;6.37;100.00
66668;BME280;57205;51.438;-2.006;2022-11-20T06:07:14;100042.22;;;6.33;100.00
66668;BME280;57205;51.438;-2.006;2022-11-20T06:09:39;100042.97;;;6.29;100.00
66668;BME280;57205;51.438;-2.006;2022-11-20T06:12:05;100044.75;;;6.23;100.00
66668;BME280;57205;51.438;-2.006;2022-11-20T06:14:32;100044.72;;;6.18;100.00
66668;BME280;57205;51.438;-2.006;2022-11-20T06:16:57;100045.44;;;6.14;100.00
66668;BME280;57205;51.438;-2.006;2022-11-20T06:19:23;100053.38;;;6.09;100.00
66668;BME280;57205;51.438;-2.006;2022-11-20T06:21:48;100057.31;;;6.06;100.00
66668;BME280;57205;51.438;-2.006;2022-11-20T06:24:14;100060.47;;;6.03;100.00
66668;BME280;57205;51.438;-2.006;2022-11-20T06:26:40;100058.31;;;6.00;100.00
66668;BME280;57205;51.438;-2.006;2022-11-20T06:29:05;100068.38;;;5.98;100.00
66668;BME280;57205;51.438;-2.006;2022-11-20T06:31:31;100066.75;;;5.97;100.00
66668;BME280;57205;51.438;-2.006;2022-11-20T06:34:00;100069.66;;;5.96;100.00
66668;BME280;57205;51.438;-2.006;2022-11-20T06:36:26;100064.88;;;5.93;100.00
66668;BME280;57205;51.438;-2.006;2022-11-20T06:38:52;100068.00;;;5.89;100.00
66668;BME280;57205;51.438;-2.006;2022-11-20T06:41:19;100067.19;;;5.89;100.00
66668;BME280;57205;51.438;-2.006;2022-11-20T06:43:46;100067.69;;;5.86;100.00
66668;BME280;57205;51.438;-2.006;2022-11-20T06:46:12;100076.47;;;5.86;100.00
66668;BME280;57205;51.438;-2.006;2022-11-20T06:48:39;100072.44;;;5.84;100.00
66668;BME280;57205;51.438;-2.006;2022-11-20T06:51:06;100074.50;;;5.82;100.00
66668;BME280;57205;51.438;-2.006;2022-11-20T06:53:32;100079.81;;;5.82;100.00
66668;BME280;57205;51.438;-2.006;2022-11-20T06:55:57;100079.38;;;5.85;100.00
66668;BME280;57205;51.438;-2.006;2022-11-20T06:58:25;100078.56;;;5.84;100.00
66668;BME280;57205;51.438;-2.006;2022-11-20T07:00:51;100077.75;;;5.84;100.00
66668;BME280;57205;51.438;-2.006;2022-11-20T07:03:16;100085.94;;;5.82;100.00
66668;BME280;57205;51.438;-2.006;2022-11-20T07:05:42;100087.22;;;5.80;100.00
66668;BME280;57205;51.438;-2.006;2022-11-20T07:08:07;100089.88;;;5.80;100.00
66668;BME280;57205;51.438;-2.006;2022-11-20T07:10:33;100085.63;;;5.79;100.00
66668;BME280;57205;51.438;-2.006;2022-11-20T07:12:59;100085.63;;;5.79;100.00
66668;BME280;57205;51.438;-2.006;2022-11-20T07:15:25;100087.72;;;5.77;100.00
66668;BME280;57205;51.438;-2.006;2022-11-20T07:17:51;100079.19;;;5.75;100.00
66668;BME280;57205;51.438;-2.006;2022-11-20T07:20:16;100078.88;;;5.71;100.00
66668;BME280;57205;51.438;-2.006;2022-11-20T07:22:42;100083.06;;;5.67;100.00
66668;BME280;57205;51.438;-2.006;2022-11-20T07:25:09;100095.78;;;5.65;100.00
66668;BME280;57205;51.438;-2.006;2022-11-20T07:27:35;100094.97;;;5.65;100.00
66668;BME280;57205;51.438;-2.006;2022-11-20T07:30:00;100097.16;;;5.68;100.00
66668;BME280;57205;51.438;-2.006;2022-11-20T07:32:26;100104.00;;;5.64;100.00
66668;BME280;57205;51.438;-2.006;2022-11-20T07:34:51;100098.13;;;5.62;100.00
66668;BME280;57205;51.438;-2.006;2022-11-20T07:37:17;100108.19;;;5.60;100.00
66668;BME280;57205;51.438;-2.006;2022-11-20T07:39:42;100097.81;;;5.58;100.00
66668;BME280;57205;51.438;-2.006;2022-11-20T07:42:09;100104.41;;;5.56;100.00
66668;BME280;57205;51.438;-2.006;2022-11-20T07:44:34;100110.53;;;5.56;100.00
66668;BME280;57205;51.438;-2.006;2022-11-20T07:47:00;100106.84;;;5.57;100.00
66668;BME280;57205;51.438;-2.006;2022-11-20T07:49:26;100105.78;;;5.58;100.00
66668;BME280;57205;51.438;-2.006;2022-11-20T07:51:52;100101.28;;;5.59;100.00
66668;BME280;57205;51.438;-2.006;2022-11-20T07:54:20;100109.56;;;5.62;100.00
66668;BME280;57205;51.438;-2.006;2022-11-20T07:56:47;100106.66;;;5.64;100.00
66668;BME280;57205;51.438;-2.006;2022-11-20T07:59:12;100113.56;;;5.65;100.00
66668;BME280;57205;51.438;-2.006;2022-11-20T08:01:39;100129.25;;;5.66;100.00
66668;BME280;57205;51.438;-2.006;2022-11-20T08:04:05;100133.25;;;5.69;100.00
66668;BME280;57205;51.438;-2.006;2022-11-20T08:06:30;100134.63;;;5.71;100.00
66668;BME280;57205;51.438;-2.006;2022-11-20T08:08:56;100129.06;;;5.73;100.00
66668;BME280;57205;51.438;-2.006;2022-11-20T08:11:21;100125.38;;;5.74;100.00
66668;BME280;57205;51.438;-2.006;2022-11-20T08:14:05;100130.44;;;5.75;100.00
66668;BME280;57205;51.438;-2.006;2022-11-20T08:16:40;100132.59;;;5.78;100.00
66668;BME280;57205;51.438;-2.006;2022-11-20T08:19:06;100131.41;;;5.86;100.00
66668;BME280;57205;51.438;-2.006;2022-11-20T08:21:32;100136.06;;;5.96;100.00
66668;BME280;57205;51.438;-2.006;2022-11-20T08:23:58;100132.97;;;6.04;100.00
66668;BME280;57205;51.438;-2.006;2022-11-20T08:26:24;100132.78;;;6.10;100.00
66668;BME280;57205;51.438;-2.006;2022-11-20T08:28:53;100129.47;;;6.20;100.00
66668;BME280;57205;51.438;-2.006;2022-11-20T08:31:20;100134.66;;;6.31;100.00
66668;BME280;57205;51.438;-2.006;2022-11-20T08:33:46;100142.69;;;6.36;100.00
66668;BME280;57205;51.438;-2.006;2022-11-20T08:36:11;100152.78;;;6.39;100.00
66668;BME280;57205;51.438;-2.006;2022-11-20T08:38:37;100152.78;;;6.39;100.00
66668;BME280;57205;51.438;-2.006;2022-11-20T08:41:04;100155.47;;;6.39;100.00
66668;BME280;57205;51.438;-2.006;2022-11-20T08:43:48;100165.06;;;6.40;100.00
66668;BME280;57205;51.438;-2.006;2022-11-20T08:46:14;100164.53;;;6.43;100.00
66668;BME280;57205;51.438;-2.006;2022-11-20T08:48:39;100158.13;;;6.39;100.00
66668;BME280;57205;51.438;-2.006;2022-11-20T08:51:05;100164.53;;;6.43;100.00
66668;BME280;57205;51.438;-2.006;2022-11-20T08:53:30;100159.09;;;6.55;100.00
66668;BME280;57205;51.438;-2.006;2022-11-20T08:55:59;100161.28;;;6.84;100.00
66668;BME280;57205;51.438;-2.006;2022-11-20T08:58:25;100159.91;;;7.35;100.00
66668;BME280;57205;51.438;-2.006;2022-11-20T09:00:51;100165.03;;;7.83;100.00
66668;BME280;57205;51.438;-2.006;2022-11-20T09:03:16;100169.06;;;8.33;100.00
66668;BME280;57205;51.438;-2.006;2022-11-20T09:05:42;100173.22;;;8.75;100.00
66668;BME280;57205;51.438;-2.006;2022-11-20T09:08:08;100167.41;;;9.19;100.00
66668;BME280;57205;51.438;-2.006;2022-11-20T09:10:34;100174.38;;;9.55;100.00
66668;BME280;57205;51.438;-2.006;2022-11-20T09:13:00;100169.00;;;9.90;100.00
66668;BME280;57205;51.438;-2.006;2022-11-20T09:15:26;100170.00;;;10.24;100.00
66668;BME280;57205;51.438;-2.006;2022-11-20T09:18:00;100167.97;;;10.60;100.00
66668;BME280;57205;51.438;-2.006;2022-11-20T09:20:27;100165.91;;;10.96;100.00
66668;BME280;57205;51.438;-2.006;2022-11-20T09:22:53;100173.94;;;11.34;93.38
66668;BME280;57205;51.438;-2.006;2022-11-20T09:25:19;100171.31;;;11.63;89.15
66668;BME280;57205;51.438;-2.006;2022-11-20T09:27:44;100170.00;;;11.89;85.12
66668;BME280;57205;51.438;-2.006;2022-11-20T09:30:12;100163.28;;;12.15;83.30
66668;BME280;57205;51.438;-2.006;2022-11-20T09:32:41;100160.91;;;12.37;81.42
66668;BME280;57205;51.438;-2.006;2022-11-20T09:35:08;100155.84;;;12.54;79.97
66668;BME280;57205;51.438;-2.006;2022-11-20T09:37:33;100156.75;;;12.68;77.76
66668;BME280;57205;51.438;-2.006;2022-11-20T09:39:59;100150.66;;;12.82;76.95
66668;BME280;57205;51.438;-2.006;2022-11-20T09:42:45;100160.81;;;12.85;75.78
66668;BME280;57205;51.438;-2.006;2022-11-20T09:48:58;100167.47;;;12.68;75.10
66668;BME280;57205;51.438;-2.006;2022-11-20T09:51:16;100175.03;;;12.66;75.27
66668;BME280;57205;51.438;-2.006;2022-11-20T09:56:25;100169.72;;;12.38;75.68
66668;BME280;57205;51.438;-2.006;2022-11-20T09:58:52;100164.00;;;12.26;75.92
66668;BME280;57205;51.438;-2.006;2022-11-20T10:01:21;100166.63;;;12.07;76.45
66668;BME280;57205;51.438;-2.006;2022-11-20T10:07:13;100161.72;;;11.52;79.08
66668;BME280;57205;51.438;-2.006;2022-11-20T10:09:50;100163.88;;;11.21;80.25
66668;BME280;57205;51.438;-2.006;2022-11-20T10:12:34;100162.16;;;10.97;81.16
66668;BME280;57205;51.438;-2.006;2022-11-20T10:15:41;100168.72;;;10.70;83.02
66668;BME280;57205;51.438;-2.006;2022-11-20T10:20:47;100161.97;;;10.24;85.81
66668;BME280;57205;51.438;-2.006;2022-11-20T10:23:35;100165.75;;;10.08;85.76
66668;BME280;57205;51.438;-2.006;2022-11-20T10:31:34;100145.97;;;10.09;86.42
66668;BME280;57205;51.438;-2.006;2022-11-20T10:34:07;100148.66;;;10.14;86.68
66668;BME280;57205;51.438;-2.006;2022-11-20T10:36:48;100147.53;;;10.20;84.94
66668;BME280;57205;51.438;-2.006;2022-11-20T10:39:22;100146.75;;;10.25;84.52
66668;BME280;57205;51.438;-2.006;2022-11-20T10:41:50;100141.13;;;10.21;85.03
66668;BME280;57205;51.438;-2.006;2022-11-20T10:44:20;100146.75;;;10.20;85.35
66668;BME280;57205;51.438;-2.006;2022-11-20T10:47:08;100145.69;;;10.21;86.39
66668;BME280;57205;51.438;-2.006;2022-11-20T10:49:35;100140.06;;;10.17;86.37
66668;BME280;57205;51.438;-2.006;2022-11-20T10:54:49;100143.78;;;10.26;86.60
66668;BME280;57205;51.438;-2.006;2022-11-20T10:57:42;100148.84;;;10.28;86.47
66668;BME280;57205;51.438;-2.006;2022-11-20T11:00:11;100145.41;;;10.27;86.10
66668;BME280;57205;51.438;-2.006;2022-11-20T11:02:55;100149.94;;;10.27;85.37
66668;BME280;57205;51.438;-2.006;2022-11-20T11:08:05;100150.53;;;10.14;86.78
66668;BME280;57205;51.438;-2.006;2022-11-20T11:10:53;100147.31;;;10.07;87.20
66668;BME280;57205;51.438;-2.006;2022-11-20T11:13:28;100153.19;;;10.04;86.74
66668;BME280;57205;51.438;-2.006;2022-11-20T11:15:56;100143.31;;;9.99;86.21
66668;BME280;57205;51.438;-2.006;2022-11-20T11:18:29;100156.16;;;9.97;87.25
66668;BME280;57205;51.438;-2.006;2022-11-20T11:20:59;100159.38;;;9.89;87.10
66668;BME280;57205;51.438;-2.006;2022-11-20T11:23:34;100166.84;;;9.87;87.83
66668;BME280;57205;51.438;-2.006;2022-11-20T11:26:02;100161.50;;;9.87;86.12
66668;BME280;57205;51.438;-2.006;2022-11-20T11:28:28;100165.25;;;9.86;86.07
66668;BME280;57205;51.438;-2.006;2022-11-20T11:30:54;100161.50;;;9.87;85.59
66668;BME280;57205;51.438;-2.006;2022-11-20T11:33:28;100163.91;;;9.88;84.81
66668;BME280;57205;51.438;-2.006;2022-11-20T11:36:00;100166.31;;;9.85;82.37
66668;BME280;57205;51.438;-2.006;2022-11-20T11:38:38;100171.16;;;9.88;83.14
66668;BME280;57205;51.438;-2.006;2022-11-20T11:41:06;100166.03;;;9.86;81.90
66668;BME280;57205;51.438;-2.006;2022-11-20T11:43:36;100158.31;;;9.85;82.38
66668;BME280;57205;51.438;-2.006;2022-11-20T11:51:34;100152.16;;;9.90;82.03
66668;BME280;57205;51.438;-2.006;2022-11-20T11:54:05;100146.28;;;9.88;81.46
66668;BME280;57205;51.438;-2.006;2022-11-20T11:56:36;100129.97;;;9.89;82.02
66668;BME280;57205;51.438;-2.006;2022-11-20T11:59:04;100120.91;;;9.90;83.38
66668;BME280;57205;51.438;-2.006;2022-11-20T12:01:43;100121.41;;;9.97;81.68
66668;BME280;57205;51.438;-2.006;2022-11-20T12:04:44;100121.94;;;9.99;82.36
66668;BME280;57205;51.438;-2.006;2022-11-20T12:07:18;100120.03;;;10.00;82.24
66668;BME280;57205;51.438;-2.006;2022-11-20T12:09:49;100127.25;;;10.04;80.54
66668;BME280;57205;51.438;-2.006;2022-11-20T12:12:20;100120.56;;;10.02;81.27
66668;BME280;57205;51.438;-2.006;2022-11-20T12:14:53;100120.31;;;10.03;81.86
66668;BME280;57205;51.438;-2.006;2022-11-20T12:17:20;100120.06;;;10.10;82.86
66668;BME280;57205;51.438;-2.006;2022-11-20T12:19:45;100128.81;;;10.20;81.84
66668;BME280;57205;51.438;-2.006;2022-11-20T12:25:27;100138.16;;;10.33;80.99
66668;BME280;57205;51.438;-2.006;2022-11-20T12:28:18;100126.09;;;10.40;79.83
66668;BME280;57205;51.438;-2.006;2022-11-20T12:34:05;100126.59;;;10.47;79.44
66668;BME280;57205;51.438;-2.006;2022-11-20T12:36:43;100125.53;;;10.43;79.77
66668;BME280;57205;51.438;-2.006;2022-11-20T12:39:17;100135.19;;;10.39;79.44
66668;BME280;57205;51.438;-2.006;2022-11-20T12:45:18;100150.50;;;10.19;81.32
66668;BME280;57205;51.438;-2.006;2022-11-20T12:52:47;100137.75;;;9.80;86.08
66668;BME280;57205;51.438;-2.006;2022-11-20T12:55:49;100124.13;;;9.72;87.28
66668;BME280;57205;51.438;-2.006;2022-11-20T12:58:13;100119.06;;;9.65;87.37
66668;BME280;57205;51.438;-2.006;2022-11-20T13:00:51;100109.19;;;9.61;88.14
66668;BME280;57205;51.438;-2.006;2022-11-20T13:03:36;100096.09;;;9.69;89.21
66668;BME280;57205;51.438;-2.006;2022-11-20T13:06:15;100089.94;;;9.74;88.45
66668;BME280;57205;51.438;-2.006;2022-11-20T13:08:53;100099.25;;;9.86;88.69
66668;BME280;57205;51.438;-2.006;2022-11-20T13:11:37;100091.72;;;9.99;88.26
66668;BME280;57205;51.438;-2.006;2022-11-20T13:17:16;100094.38;;;10.14;85.76
66668;BME280;57205;51.438;-2.006;2022-11-20T13:19:52;100095.72;;;10.16;86.51
66668;BME280;57205;51.438;-2.006;2022-11-20T13:22:27;100099.97;;;10.17;86.07
66668;BME280;57205;51.438;-2.006;2022-11-20T13:24:53;100106.94;;;10.13;84.84
66668;BME280;57205;51.438;-2.006;2022-11-20T13:27:21;100115.25;;;10.12;83.91
66668;BME280;57205;51.438;-2.006;2022-11-20T13:30:20;100111.22;;;10.04;84.70
66668;BME280;57205;51.438;-2.006;2022-11-20T13:33:08;100098.38;;;10.06;84.63
66668;BME280;57205;51.438;-2.006;2022-11-20T13:35:37;100106.44;;;9.96;84.94
66668;BME280;57205;51.438;-2.006;2022-11-20T13:38:11;100106.97;;;9.93;85.18
66668;BME280;57205;51.438;-2.006;2022-11-20T13:40:59;100108.31;;;9.91;84.98
66668;BME280;57205;51.438;-2.006;2022-11-20T13:43:35;100095.22;;;9.89;86.24